Curitiba, Brazil
Current Conditions -  °F | °C
As of 11:25 PM on Thursday 30 Oct 2014 (Local Time) from SBBI Reporting Station
Broken Clouds Broken Clouds  
Wind Chill: 72°   Ceiling: 10000
Heat Index: 72°   Visibility: 6mi
Dew Point: 63°   Wind: 12mph
Humidity: 73%   Direction: 190°S
Pressure: 30"   Gusts: NA
Location:  25.42°S, 49.29°W
Report Text: SBBI 310125Z 19010KT 9999 FEW030 BKN100 22/17 Q1016
Loading
Personal Weather Stations






























Interactive Weather Map
Tropical Storm Tracking
New forecast layout! Learn more

10-Day Weather Forecast

Advertisements
Track Severe Weather on mobile